sensor_id;sensor_type;location;lat;lon;timestamp;temperature;humidity
20712;DHT22;10517;50.742;4.224;2023-05-27T00:00:15;12.70;99.90
20712;DHT22;10517;50.742;4.224;2023-05-27T00:02:41;12.70;99.90
20712;DHT22;10517;50.742;4.224;2023-05-27T00:05:07;12.70;99.90
20712;DHT22;10517;50.742;4.224;2023-05-27T00:07:33;12.80;99.90
20712;DHT22;10517;50.742;4.224;2023-05-27T00:09:58;12.80;99.90
20712;DHT22;10517;50.742;4.224;2023-05-27T00:12:24;12.70;99.90
20712;DHT22;10517;50.742;4.224;2023-05-27T00:14:49;12.70;99.90
20712;DHT22;10517;50.742;4.224;2023-05-27T00:17:15;12.60;99.90
20712;DHT22;10517;50.742;4.224;2023-05-27T00:19:41;12.60;99.90
20712;DHT22;10517;50.742;4.224;2023-05-27T00:22:08;12.60;99.90
20712;DHT22;10517;50.742;4.224;2023-05-27T00:24:34;12.50;99.90
20712;DHT22;10517;50.742;4.224;2023-05-27T00:27:10;12.40;99.90
20712;DHT22;10517;50.742;4.224;2023-05-27T00:29:37;12.40;99.90
20712;DHT22;10517;50.742;4.224;2023-05-27T00:32:03;12.40;99.90
20712;DHT22;10517;50.742;4.224;2023-05-27T00:34:29;12.30;99.90
20712;DHT22;10517;50.742;4.224;2023-05-27T00:36:56;12.30;99.90
20712;DHT22;10517;50.742;4.224;2023-05-27T00:39:21;12.40;99.90
20712;DHT22;10517;50.742;4.224;2023-05-27T00:41:50;12.30;99.90
20712;DHT22;10517;50.742;4.224;2023-05-27T00:44:16;12.30;99.90
20712;DHT22;10517;50.742;4.224;2023-05-27T00:46:43;12.20;99.90
20712;DHT22;10517;50.742;4.224;2023-05-27T00:49:09;12.20;99.90
20712;DHT22;10517;50.742;4.224;2023-05-27T00:51:35;12.10;99.90
20712;DHT22;10517;50.742;4.224;2023-05-27T00:54:00;12.10;99.90
20712;DHT22;10517;50.742;4.224;2023-05-27T00:56:26;12.10;99.90
20712;DHT22;10517;50.742;4.224;2023-05-27T00:58:52;12.00;99.90
20712;DHT22;10517;50.742;4.224;2023-05-27T01:01:18;12.00;99.90
20712;DHT22;10517;50.742;4.224;2023-05-27T01:03:44;12.10;99.90
20712;DHT22;10517;50.742;4.224;2023-05-27T01:06:53;12.00;99.90
20712;DHT22;10517;50.742;4.224;2023-05-27T01:11:48;11.90;99.90
20712;DHT22;10517;50.742;4.224;2023-05-27T01:14:16;11.80;99.90
20712;DHT22;10517;50.742;4.224;2023-05-27T01:16:44;11.80;99.90
20712;DHT22;10517;50.742;4.224;2023-05-27T01:19:22;11.80;99.90
20712;DHT22;10517;50.742;4.224;2023-05-27T01:21:51;11.80;99.90
20712;DHT22;10517;50.742;4.224;2023-05-27T01:24:18;11.70;99.90
20712;DHT22;10517;50.742;4.224;2023-05-27T01:26:44;11.70;99.90
20712;DHT22;10517;50.742;4.224;2023-05-27T01:29:09;11.70;99.90
20712;DHT22;10517;50.742;4.224;2023-05-27T01:31:45;11.60;99.90
20712;DHT22;10517;50.742;4.224;2023-05-27T01:34:16;11.60;99.90
20712;DHT22;10517;50.742;4.224;2023-05-27T01:36:51;11.50;99.90
20712;DHT22;10517;50.742;4.224;2023-05-27T01:39:20;11.50;99.90
20712;DHT22;10517;50.742;4.224;2023-05-27T01:41:48;11.40;99.90
20712;DHT22;10517;50.742;4.224;2023-05-27T01:44:16;11.40;99.90
20712;DHT22;10517;50.742;4.224;2023-05-27T01:46:42;11.40;99.90
20712;DHT22;10517;50.742;4.224;2023-05-27T01:49:09;11.40;99.90
20712;DHT22;10517;50.742;4.224;2023-05-27T01:51:35;11.30;99.90
20712;DHT22;10517;50.742;4.224;2023-05-27T01:54:02;11.30;99.90
20712;DHT22;10517;50.742;4.224;2023-05-27T01:56:28;11.30;99.90
20712;DHT22;10517;50.742;4.224;2023-05-27T01:58:54;11.20;99.90
20712;DHT22;10517;50.742;4.224;2023-05-27T02:01:20;11.20;99.90
20712;DHT22;10517;50.742;4.224;2023-05-27T02:03:47;11.10;99.90
20712;DHT22;10517;50.742;4.224;2023-05-27T02:06:13;11.10;99.90
20712;DHT22;10517;50.742;4.224;2023-05-27T02:08:38;11.10;99.90
20712;DHT22;10517;50.742;4.224;2023-05-27T02:11:04;11.10;99.90
20712;DHT22;10517;50.742;4.224;2023-05-27T02:13:30;11.10;99.90
20712;DHT22;10517;50.742;4.224;2023-05-27T02:15:55;11.00;99.90
20712;DHT22;10517;50.742;4.224;2023-05-27T02:18:21;11.00;99.90
20712;DHT22;10517;50.742;4.224;2023-05-27T02:20:47;10.90;99.90
20712;DHT22;10517;50.742;4.224;2023-05-27T02:23:12;10.90;99.90
20712;DHT22;10517;50.742;4.224;2023-05-27T02:25:38;10.90;99.90
20712;DHT22;10517;50.742;4.224;2023-05-27T02:28:04;10.90;99.90
20712;DHT22;10517;50.742;4.224;2023-05-27T02:30:30;10.80;99.90
20712;DHT22;10517;50.742;4.224;2023-05-27T02:32:57;10.80;99.90
20712;DHT22;10517;50.742;4.224;2023-05-27T02:35:22;10.80;99.90
20712;DHT22;10517;50.742;4.224;2023-05-27T02:37:48;10.70;99.90
20712;DHT22;10517;50.742;4.224;2023-05-27T02:40:24;10.70;99.90
20712;DHT22;10517;50.742;4.224;2023-05-27T02:42:50;10.60;99.90
20712;DHT22;10517;50.742;4.224;2023-05-27T02:45:15;10.50;99.90
20712;DHT22;10517;50.742;4.224;2023-05-27T02:47:41;10.50;99.90
20712;DHT22;10517;50.742;4.224;2023-05-27T02:50:07;10.50;99.90
20712;DHT22;10517;50.742;4.224;2023-05-27T02:52:33;10.40;99.90
20712;DHT22;10517;50.742;4.224;2023-05-27T02:54:58;10.40;99.90
20712;DHT22;10517;50.742;4.224;2023-05-27T02:57:24;10.40;99.90
20712;DHT22;10517;50.742;4.224;2023-05-27T02:59:49;10.40;99.90
20712;DHT22;10517;50.742;4.224;2023-05-27T03:02:15;10.40;99.90
20712;DHT22;10517;50.742;4.224;2023-05-27T03:04:40;10.40;99.90
20712;DHT22;10517;50.742;4.224;2023-05-27T03:07:06;10.30;99.90
20712;DHT22;10517;50.742;4.224;2023-05-27T03:09:32;10.30;99.90
20712;DHT22;10517;50.742;4.224;2023-05-27T03:11:57;10.40;99.90
20712;DHT22;10517;50.742;4.224;2023-05-27T03:14:23;10.40;99.90
20712;DHT22;10517;50.742;4.224;2023-05-27T03:16:49;10.40;99.90
20712;DHT22;10517;50.742;4.224;2023-05-27T03:19:14;10.30;99.90
20712;DHT22;10517;50.742;4.224;2023-05-27T03:21:40;10.30;99.90
20712;DHT22;10517;50.742;4.224;2023-05-27T03:24:05;10.30;99.90
20712;DHT22;10517;50.742;4.224;2023-05-27T03:26:31;10.20;99.90
20712;DHT22;10517;50.742;4.224;2023-05-27T03:28:57;10.20;99.90
20712;DHT22;10517;50.742;4.224;2023-05-27T03:31:22;10.10;99.90
20712;DHT22;10517;50.742;4.224;2023-05-27T03:33:49;10.10;99.90
20712;DHT22;10517;50.742;4.224;2023-05-27T03:36:15;10.10;99.90
20712;DHT22;10517;50.742;4.224;2023-05-27T03:38:41;10.10;99.90
20712;DHT22;10517;50.742;4.224;2023-05-27T03:41:06;10.10;99.90
20712;DHT22;10517;50.742;4.224;2023-05-27T03:43:32;9.90;99.90
20712;DHT22;10517;50.742;4.224;2023-05-27T03:45:57;9.90;99.90
20712;DHT22;10517;50.742;4.224;2023-05-27T03:48:23;9.90;99.90
20712;DHT22;10517;50.742;4.224;2023-05-27T03:50:49;9.90;99.90
20712;DHT22;10517;50.742;4.224;2023-05-27T03:53:14;9.90;99.90
20712;DHT22;10517;50.742;4.224;2023-05-27T03:55:40;9.90;99.90
20712;DHT22;10517;50.742;4.224;2023-05-27T03:58:05;9.80;99.90
20712;DHT22;10517;50.742;4.224;2023-05-27T04:00:31;9.80;99.90
20712;DHT22;10517;50.742;4.224;2023-05-27T04:02:57;9.80;99.90
20712;DHT22;10517;50.742;4.224;2023-05-27T04:05:23;9.80;99.90
20712;DHT22;10517;50.742;4.224;2023-05-27T04:07:48;9.80;99.90
20712;DHT22;10517;50.742;4.224;2023-05-27T04:10:14;9.80;99.90
20712;DHT22;10517;50.742;4.224;2023-05-27T04:12:39;9.90;99.90
20712;DHT22;10517;50.742;4.224;2023-05-27T04:15:07;9.90;99.90
20712;DHT22;10517;50.742;4.224;2023-05-27T04:17:33;9.90;99.90
20712;DHT22;10517;50.742;4.224;2023-05-27T04:19:59;9.90;99.90
20712;DHT22;10517;50.742;4.224;2023-05-27T04:22:25;9.90;99.90
20712;DHT22;10517;50.742;4.224;2023-05-27T04:24:52;9.90;99.90
20712;DHT22;10517;50.742;4.224;2023-05-27T04:27:18;9.90;99.90
20712;DHT22;10517;50.742;4.224;2023-05-27T04:29:44;10.00;99.90
20712;DHT22;10517;50.742;4.224;2023-05-27T04:32:11;10.00;99.90
20712;DHT22;10517;50.742;4.224;2023-05-27T04:34:37;10.00;99.90
20712;DHT22;10517;50.742;4.224;2023-05-27T04:37:07;10.00;99.90
20712;DHT22;10517;50.742;4.224;2023-05-27T04:39:35;10.10;99.90
20712;DHT22;10517;50.742;4.224;2023-05-27T04:42:00;10.10;99.90
20712;DHT22;10517;50.742;4.224;2023-05-27T04:44:27;10.10;99.90
20712;DHT22;10517;50.742;4.224;2023-05-27T04:46:54;10.10;99.90
20712;DHT22;10517;50.742;4.224;2023-05-27T04:49:20;10.10;99.90
20712;DHT22;10517;50.742;4.224;2023-05-27T04:51:47;10.10;99.90
20712;DHT22;10517;50.742;4.224;2023-05-27T04:54:13;10.20;99.90
20712;DHT22;10517;50.742;4.224;2023-05-27T04:56:39;10.10;99.90
20712;DHT22;10517;50.742;4.224;2023-05-27T04:59:05;10.10;99.90
20712;DHT22;10517;50.742;4.224;2023-05-27T05:01:31;10.10;99.90
20712;DHT22;10517;50.742;4.224;2023-05-27T05:04:14;10.10;99.90
20712;DHT22;10517;50.742;4.224;2023-05-27T05:06:40;10.10;99.90
20712;DHT22;10517;50.742;4.224;2023-05-27T05:09:06;10.20;99.90
20712;DHT22;10517;50.742;4.224;2023-05-27T05:11:34;10.30;99.90
20712;DHT22;10517;50.742;4.224;2023-05-27T05:14:00;10.30;99.90
20712;DHT22;10517;50.742;4.224;2023-05-27T05:16:25;10.30;99.90
20712;DHT22;10517;50.742;4.224;2023-05-27T05:18:51;10.30;99.90
20712;DHT22;10517;50.742;4.224;2023-05-27T05:21:16;10.40;99.90
20712;DHT22;10517;50.742;4.224;2023-05-27T05:23:42;10.50;99.90
20712;DHT22;10517;50.742;4.224;2023-05-27T05:26:08;10.50;99.90
20712;DHT22;10517;50.742;4.224;2023-05-27T05:28:33;10.50;99.90
20712;DHT22;10517;50.742;4.224;2023-05-27T05:31:00;10.40;99.90
20712;DHT22;10517;50.742;4.224;2023-05-27T05:33:25;10.50;99.90
20712;DHT22;10517;50.742;4.224;2023-05-27T05:35:51;10.60;99.90
20712;DHT22;10517;50.742;4.224;2023-05-27T05:38:17;10.60;99.90
20712;DHT22;10517;50.742;4.224;2023-05-27T05:40:43;10.70;99.90
20712;DHT22;10517;50.742;4.224;2023-05-27T05:43:14;10.80;99.90
20712;DHT22;10517;50.742;4.224;2023-05-27T05:45:39;10.90;99.90
20712;DHT22;10517;50.742;4.224;2023-05-27T05:48:05;10.90;99.90
20712;DHT22;10517;50.742;4.224;2023-05-27T05:50:30;11.00;99.90
20712;DHT22;10517;50.742;4.224;2023-05-27T05:52:56;11.20;99.90
20712;DHT22;10517;50.742;4.224;2023-05-27T05:55:21;11.10;99.90
20712;DHT22;10517;50.742;4.224;2023-05-27T05:57:47;11.20;99.90
20712;DHT22;10517;50.742;4.224;2023-05-27T06:00:13;11.30;99.90
20712;DHT22;10517;50.742;4.224;2023-05-27T06:02:39;11.40;99.90
20712;DHT22;10517;50.742;4.224;2023-05-27T06:05:05;11.50;99.90
20712;DHT22;10517;50.742;4.224;2023-05-27T06:07:31;11.60;99.90
20712;DHT22;10517;50.742;4.224;2023-05-27T06:09:56;11.80;99.90
20712;DHT22;10517;50.742;4.224;2023-05-27T06:12:22;11.80;99.90
20712;DHT22;10517;50.742;4.224;2023-05-27T06:14:47;11.70;99.90
20712;DHT22;10517;50.742;4.224;2023-05-27T06:17:13;11.70;99.90
20712;DHT22;10517;50.742;4.224;2023-05-27T06:19:39;11.90;99.90
20712;DHT22;10517;50.742;4.224;2023-05-27T06:22:04;12.10;99.90
20712;DHT22;10517;50.742;4.224;2023-05-27T06:24:31;12.20;99.90
20712;DHT22;10517;50.742;4.224;2023-05-27T06:26:57;12.40;99.90
20712;DHT22;10517;50.742;4.224;2023-05-27T06:29:22;12.40;99.90
20712;DHT22;10517;50.742;4.224;2023-05-27T06:31:48;12.30;99.90
20712;DHT22;10517;50.742;4.224;2023-05-27T06:34:15;12.30;99.90
20712;DHT22;10517;50.742;4.224;2023-05-27T06:36:41;12.30;99.90
20712;DHT22;10517;50.742;4.224;2023-05-27T06:39:07;12.30;99.90
20712;DHT22;10517;50.742;4.224;2023-05-27T06:41:32;12.50;99.90
20712;DHT22;10517;50.742;4.224;2023-05-27T06:43:58;12.60;99.90
20712;DHT22;10517;50.742;4.224;2023-05-27T06:46:23;12.60;99.90
20712;DHT22;10517;50.742;4.224;2023-05-27T06:48:49;12.70;99.90
20712;DHT22;10517;50.742;4.224;2023-05-27T06:51:15;12.80;99.90
20712;DHT22;10517;50.742;4.224;2023-05-27T06:53:41;12.80;99.90
20712;DHT22;10517;50.742;4.224;2023-05-27T06:56:06;12.90;99.90
20712;DHT22;10517;50.742;4.224;2023-05-27T06:58:32;13.00;99.90
20712;DHT22;10517;50.742;4.224;2023-05-27T07:00:57;13.00;99.90
20712;DHT22;10517;50.742;4.224;2023-05-27T07:03:23;12.90;99.90
20712;DHT22;10517;50.742;4.224;2023-05-27T07:05:49;12.90;99.90
20712;DHT22;10517;50.742;4.224;2023-05-27T07:08:14;13.10;99.90
20712;DHT22;10517;50.742;4.224;2023-05-27T07:10:40;13.30;99.90
20712;DHT22;10517;50.742;4.224;2023-05-27T07:13:06;13.50;99.90
20712;DHT22;10517;50.742;4.224;2023-05-27T07:15:31;13.80;99.90
20712;DHT22;10517;50.742;4.224;2023-05-27T07:17:57;13.80;99.90
20712;DHT22;10517;50.742;4.224;2023-05-27T07:20:23;13.70;99.90
20712;DHT22;10517;50.742;4.224;2023-05-27T07:22:49;13.70;99.90
20712;DHT22;10517;50.742;4.224;2023-05-27T07:25:15;13.90;99.90
20712;DHT22;10517;50.742;4.224;2023-05-27T07:27:40;14.10;99.90
20712;DHT22;10517;50.742;4.224;2023-05-27T07:30:06;14.10;99.90
20712;DHT22;10517;50.742;4.224;2023-05-27T07:32:33;14.30;99.90
20712;DHT22;10517;50.742;4.224;2023-05-27T07:34:58;14.30;99.90
20712;DHT22;10517;50.742;4.224;2023-05-27T07:37:24;14.50;99.90
20712;DHT22;10517;50.742;4.224;2023-05-27T07:39:51;14.60;99.90
20712;DHT22;10517;50.742;4.224;2023-05-27T07:42:17;14.60;99.90
20712;DHT22;10517;50.742;4.224;2023-05-27T07:44:43;14.60;99.90
20712;DHT22;10517;50.742;4.224;2023-05-27T07:47:08;14.60;99.90
20712;DHT22;10517;50.742;4.224;2023-05-27T07:49:34;14.70;99.90
20712;DHT22;10517;50.742;4.224;2023-05-27T07:51:59;14.80;99.90
20712;DHT22;10517;50.742;4.224;2023-05-27T07:54:25;14.90;99.90
20712;DHT22;10517;50.742;4.224;2023-05-27T07:56:52;15.00;99.90
20712;DHT22;10517;50.742;4.224;2023-05-27T07:59:18;15.00;99.90
20712;DHT22;10517;50.742;4.224;2023-05-27T08:01:43;15.00;99.90
20712;DHT22;10517;50.742;4.224;2023-05-27T08:04:09;15.00;99.90
20712;DHT22;10517;50.742;4.224;2023-05-27T08:06:34;15.20;99.90
20712;DHT22;10517;50.742;4.224;2023-05-27T08:09:01;15.30;99.90
20712;DHT22;10517;50.742;4.224;2023-05-27T08:11:27;15.60;99.90
20712;DHT22;10517;50.742;4.224;2023-05-27T08:13:52;15.80;99.90
20712;DHT22;10517;50.742;4.224;2023-05-27T08:16:18;15.70;99.90
20712;DHT22;10517;50.742;4.224;2023-05-27T08:18:43;15.70;99.90
20712;DHT22;10517;50.742;4.224;2023-05-27T08:21:09;15.70;99.90
20712;DHT22;10517;50.742;4.224;2023-05-27T08:23:34;15.70;99.90
20712;DHT22;10517;50.742;4.224;2023-05-27T08:26:00;15.50;99.90
20712;DHT22;10517;50.742;4.224;2023-05-27T08:28:26;15.60;99.90
20712;DHT22;10517;50.742;4.224;2023-05-27T08:30:52;15.90;99.90
20712;DHT22;10517;50.742;4.224;2023-05-27T08:33:17;15.90;99.90
20712;DHT22;10517;50.742;4.224;2023-05-27T08:35:43;15.80;99.90
20712;DHT22;10517;50.742;4.224;2023-05-27T08:38:09;15.90;99.90
20712;DHT22;10517;50.742;4.224;2023-05-27T08:40:35;15.90;99.90
20712;DHT22;10517;50.742;4.224;2023-05-27T08:43:01;16.00;99.90
20712;DHT22;10517;50.742;4.224;2023-05-27T08:45:27;16.10;99.90
20712;DHT22;10517;50.742;4.224;2023-05-27T08:47:53;16.40;99.90
20712;DHT22;10517;50.742;4.224;2023-05-27T08:50:19;16.30;99.90
20712;DHT22;10517;50.742;4.224;2023-05-27T08:52:47;16.30;99.90
20712;DHT22;10517;50.742;4.224;2023-05-27T08:55:15;16.20;99.90
20712;DHT22;10517;50.742;4.224;2023-05-27T08:57:44;16.10;99.90
20712;DHT22;10517;50.742;4.224;2023-05-27T09:00:11;16.20;99.90
20712;DHT22;10517;50.742;4.224;2023-05-27T09:02:39;16.30;99.90
20712;DHT22;10517;50.742;4.224;2023-05-27T09:05:06;16.50;99.90
20712;DHT22;10517;50.742;4.224;2023-05-27T09:07:33;16.50;99.90
20712;DHT22;10517;50.742;4.224;2023-05-27T09:09:59;16.70;99.90
20712;DHT22;10517;50.742;4.224;2023-05-27T09:12:26;16.90;99.90
20712;DHT22;10517;50.742;4.224;2023-05-27T09:14:52;17.10;99.90
20712;DHT22;10517;50.742;4.224;2023-05-27T09:17:21;17.30;99.90
20712;DHT22;10517;50.742;4.224;2023-05-27T09:19:47;17.10;99.90
20712;DHT22;10517;50.742;4.224;2023-05-27T09:22:27;17.30;99.90
20712;DHT22;10517;50.742;4.224;2023-05-27T09:24:53;17.40;99.90
20712;DHT22;10517;50.742;4.224;2023-05-27T09:27:26;17.20;99.90
20712;DHT22;10517;50.742;4.224;2023-05-27T09:29:52;17.20;99.90
20712;DHT22;10517;50.742;4.224;2023-05-27T09:32:30;17.40;99.90
20712;DHT22;10517;50.742;4.224;2023-05-27T09:34:57;17.50;99.90
20712;DHT22;10517;50.742;4.224;2023-05-27T09:37:26;17.40;99.90
20712;DHT22;10517;50.742;4.224;2023-05-27T09:40:07;17.60;99.90
20712;DHT22;10517;50.742;4.224;2023-05-27T09:42:47;17.80;99.90
20712;DHT22;10517;50.742;4.224;2023-05-27T09:45:15;17.90;99.90
20712;DHT22;10517;50.742;4.224;2023-05-27T09:47:47;18.20;99.90
20712;DHT22;10517;50.742;4.224;2023-05-27T09:50:13;18.50;99.90
20712;DHT22;10517;50.742;4.224;2023-05-27T09:52:43;18.70;99.90
20712;DHT22;10517;50.742;4.224;2023-05-27T09:55:11;18.50;99.90
20712;DHT22;10517;50.742;4.224;2023-05-27T09:57:39;18.70;99.90
20712;DHT22;10517;50.742;4.224;2023-05-27T10:00:06;18.90;99.90
20712;DHT22;10517;50.742;4.224;2023-05-27T10:02:49;18.70;99.90
20712;DHT22;10517;50.742;4.224;2023-05-27T10:05:17;18.50;99.90
20712;DHT22;10517;50.742;4.224;2023-05-27T10:07:45;18.80;99.90
20712;DHT22;10517;50.742;4.224;2023-05-27T10:10:14;19.00;99.90
20712;DHT22;10517;50.742;4.224;2023-05-27T10:12:42;18.90;99.90
20712;DHT22;10517;50.742;4.224;2023-05-27T10:15:08;19.00;99.90
20712;DHT22;10517;50.742;4.224;2023-05-27T10:17:48;19.20;99.90
20712;DHT22;10517;50.742;4.224;2023-05-27T10:20:33;19.40;99.90
20712;DHT22;10517;50.742;4.224;2023-05-27T10:23:24;19.40;99.90
20712;DHT22;10517;50.742;4.224;2023-05-27T10:26:11;19.30;99.90
20712;DHT22;10517;50.742;4.224;2023-05-27T10:28:38;19.50;99.90
20712;DHT22;10517;50.742;4.224;2023-05-27T10:31:15;19.70;99.90
20712;DHT22;10517;50.742;4.224;2023-05-27T10:33:48;20.00;99.90
20712;DHT22;10517;50.742;4.224;2023-05-27T10:36:27;20.00;99.90
20712;DHT22;10517;50.742;4.224;2023-05-27T10:39:03;20.10;99.90
20712;DHT22;10517;50.742;4.224;2023-05-27T10:41:40;19.80;99.90
20712;DHT22;10517;50.742;4.224;2023-05-27T10:44:06;20.00;99.90
20712;DHT22;10517;50.742;4.224;2023-05-27T10:46:42;20.10;99.90
20712;DHT22;10517;50.742;4.224;2023-05-27T10:49:13;20.00;99.90
20712;DHT22;10517;50.742;4.224;2023-05-27T10:51:40;20.50;99.90
20712;DHT22;10517;50.742;4.224;2023-05-27T10:54:07;20.60;99.90
20712;DHT22;10517;50.742;4.224;2023-05-27T10:56:33;20.50;99.90
20712;DHT22;10517;50.742;4.224;2023-05-27T10:59:00;21.00;99.90
20712;DHT22;10517;50.742;4.224;2023-05-27T11:01:29;21.20;99.90
20712;DHT22;10517;50.742;4.224;2023-05-27T11:03:57;21.20;99.90
20712;DHT22;10517;50.742;4.224;2023-05-27T11:06:23;21.10;99.90
20712;DHT22;10517;50.742;4.224;2023-05-27T11:08:50;20.90;99.90
20712;DHT22;10517;50.742;4.224;2023-05-27T11:11:16;21.20;99.90
20712;DHT22;10517;50.742;4.224;2023-05-27T11:13:43;21.30;99.90
20712;DHT22;10517;50.742;4.224;2023-05-27T11:16:09;21.20;99.90
20712;DHT22;10517;50.742;4.224;2023-05-27T11:18:38;21.60;99.90
20712;DHT22;10517;50.742;4.224;2023-05-27T11:21:06;21.70;99.90
20712;DHT22;10517;50.742;4.224;2023-05-27T11:23:46;21.70;99.90
20712;DHT22;10517;50.742;4.224;2023-05-27T11:26:20;21.60;99.90
20712;DHT22;10517;50.742;4.224;2023-05-27T11:31:13;21.60;99.90
20712;DHT22;10517;50.742;4.224;2023-05-27T11:33:44;21.80;99.90
20712;DHT22;10517;50.742;4.224;2023-05-27T11:36:14;21.80;99.90
20712;DHT22;10517;50.742;4.224;2023-05-27T11:38:56;22.00;99.90
20712;DHT22;10517;50.742;4.224;2023-05-27T11:41:23;22.10;99.90
20712;DHT22;10517;50.742;4.224;2023-05-27T11:46:22;22.20;99.90
20712;DHT22;10517;50.742;4.224;2023-05-27T11:48:48;22.10;99.90
20712;DHT22;10517;50.742;4.224;2023-05-27T11:51:14;22.00;99.90
20712;DHT22;10517;50.742;4.224;2023-05-27T11:53:46;22.00;99.90
20712;DHT22;10517;50.742;4.224;2023-05-27T11:56:13;22.30;99.90
20712;DHT22;10517;50.742;4.224;2023-05-27T11:58:39;22.60;99.90
20712;DHT22;10517;50.742;4.224;2023-05-27T12:01:05;22.80;99.90
20712;DHT22;10517;50.742;4.224;2023-05-27T12:03:35;23.10;99.90
20712;DHT22;10517;50.742;4.224;2023-05-27T12:06:01;23.10;99.90
20712;DHT22;10517;50.742;4.224;2023-05-27T12:08:27;22.90;99.90
20712;DHT22;10517;50.742;4.224;2023-05-27T12:10:53;23.30;99.90
20712;DHT22;10517;50.742;4.224;2023-05-27T12:13:21;23.70;99.90
20712;DHT22;10517;50.742;4.224;2023-05-27T12:15:50;24.00;99.90
20712;DHT22;10517;50.742;4.224;2023-05-27T12:18:16;24.30;99.90
20712;DHT22;10517;50.742;4.224;2023-05-27T12:20:43;24.10;99.90
20712;DHT22;10517;50.742;4.224;2023-05-27T12:23:10;24.00;99.90
20712;DHT22;10517;50.742;4.224;2023-05-27T12:25:35;24.20;99.90
20712;DHT22;10517;50.742;4.224;2023-05-27T12:28:01;24.30;99.90
20712;DHT22;10517;50.742;4.224;2023-05-27T12:30:28;24.40;99.90
20712;DHT22;10517;50.742;4.224;2023-05-27T12:32:53;24.60;99.90
20712;DHT22;10517;50.742;4.224;2023-05-27T12:35:20;24.40;99.90
20712;DHT22;10517;50.742;4.224;2023-05-27T12:37:45;24.30;99.90
20712;DHT22;10517;50.742;4.224;2023-05-27T12:40:11;24.60;99.90
20712;DHT22;10517;50.742;4.224;2023-05-27T12:42:40;25.10;99.90
20712;DHT22;10517;50.742;4.224;2023-05-27T12:45:08;25.50;99.90
20712;DHT22;10517;50.742;4.224;2023-05-27T12:47:34;25.70;99.90
20712;DHT22;10517;50.742;4.224;2023-05-27T12:49:59;26.00;99.90
20712;DHT22;10517;50.742;4.224;2023-05-27T12:52:25;26.20;99.90
20712;DHT22;10517;50.742;4.224;2023-05-27T12:54:51;26.10;99.90
20712;DHT22;10517;50.742;4.224;2023-05-27T12:57:16;25.60;99.90
20712;DHT22;10517;50.742;4.224;2023-05-27T12:59:42;25.70;99.90
20712;DHT22;10517;50.742;4.224;2023-05-27T13:02:08;26.20;99.90
20712;DHT22;10517;50.742;4.224;2023-05-27T13:04:33;27.00;99.90
20712;DHT22;10517;50.742;4.224;2023-05-27T13:06:59;27.00;99.90
20712;DHT22;10517;50.742;4.224;2023-05-27T13:09:26;27.60;99.90
20712;DHT22;10517;50.742;4.224;2023-05-27T13:11:51;28.50;99.90
20712;DHT22;10517;50.742;4.224;2023-05-27T13:14:17;29.60;99.90
20712;DHT22;10517;50.742;4.224;2023-05-27T13:16:42;30.10;99.90
20712;DHT22;10517;50.742;4.224;2023-05-27T13:19:08;30.20;99.90
20712;DHT22;10517;50.742;4.224;2023-05-27T13:21:34;31.50;99.00
20712;DHT22;10517;50.742;4.224;2023-05-27T13:23:59;31.60;96.70
20712;DHT22;10517;50.742;4.224;2023-05-27T13:26:25;32.70;97.30
20712;DHT22;10517;50.742;4.224;2023-05-27T13:28:51;31.70;96.10
20712;DHT22;10517;50.742;4.224;2023-05-27T13:31:17;31.80;94.50
20712;DHT22;10517;50.742;4.224;2023-05-27T13:33:42;33.20;94.70
20712;DHT22;10517;50.742;4.224;2023-05-27T13:36:08;33.30;93.30
20712;DHT22;10517;50.742;4.224;2023-05-27T13:38:34;34.30;91.40
20712;DHT22;10517;50.742;4.224;2023-05-27T13:41:02;34.20;89.90
20712;DHT22;10517;50.742;4.224;2023-05-27T13:43:28;34.00;89.30
20712;DHT22;10517;50.742;4.224;2023-05-27T13:45:53;34.60;90.40
20712;DHT22;10517;50.742;4.224;2023-05-27T13:48:19;35.00;90.20
20712;DHT22;10517;50.742;4.224;2023-05-27T13:50:45;32.50;84.30
20712;DHT22;10517;50.742;4.224;2023-05-27T13:53:10;31.60;86.20
20712;DHT22;10517;50.742;4.224;2023-05-27T13:55:36;32.20;90.60
20712;DHT22;10517;50.742;4.224;2023-05-27T13:58:01;33.40;86.70
20712;DHT22;10517;50.742;4.224;2023-05-27T14:00:27;32.80;84.00
20712;DHT22;10517;50.742;4.224;2023-05-27T14:02:53;33.10;85.60
20712;DHT22;10517;50.742;4.224;2023-05-27T14:05:20;33.30;84.40
20712;DHT22;10517;50.742;4.224;2023-05-27T14:07:46;33.30;86.30
20712;DHT22;10517;50.742;4.224;2023-05-27T14:10:12;33.60;85.40
20712;DHT22;10517;50.742;4.224;2023-05-27T14:12:38;33.60;83.20
20712;DHT22;10517;50.742;4.224;2023-05-27T14:15:05;34.60;83.70
20712;DHT22;10517;50.742;4.224;2023-05-27T14:17:31;34.70;79.10
20712;DHT22;10517;50.742;4.224;2023-05-27T14:19:56;33.80;79.40
20712;DHT22;10517;50.742;4.224;2023-05-27T14:22:23;33.90;79.30
20712;DHT22;10517;50.742;4.224;2023-05-27T14:24:49;34.90;83.00
20712;DHT22;10517;50.742;4.224;2023-05-27T14:27:15;35.10;83.80
20712;DHT22;10517;50.742;4.224;2023-05-27T14:29:41;36.80;82.00
20712;DHT22;10517;50.742;4.224;2023-05-27T14:32:07;36.50;76.80
20712;DHT22;10517;50.742;4.224;2023-05-27T14:34:33;35.70;76.70
20712;DHT22;10517;50.742;4.224;2023-05-27T14:37:01;36.50;77.90
20712;DHT22;10517;50.742;4.224;2023-05-27T14:39:27;37.30;73.10
20712;DHT22;10517;50.742;4.224;2023-05-27T14:41:55;37.00;74.70
20712;DHT22;10517;50.742;4.224;2023-05-27T14:44:21;36.50;71.80
20712;DHT22;10517;50.742;4.224;2023-05-27T14:46:46;35.60;74.50
20712;DHT22;10517;50.742;4.224;2023-05-27T14:49:12;36.00;73.40
20712;DHT22;10517;50.742;4.224;2023-05-27T14:51:38;36.50;72.00
20712;DHT22;10517;50.742;4.224;2023-05-27T14:54:04;37.20;74.10
20712;DHT22;10517;50.742;4.224;2023-05-27T14:56:30;38.10;74.00
20712;DHT22;10517;50.742;4.224;2023-05-27T14:58:56;38.90;69.50
20712;DHT22;10517;50.742;4.224;2023-05-27T15:01:21;39.20;68.30
20712;DHT22;10517;50.742;4.224;2023-05-27T15:03:47;38.10;65.50
20712;DHT22;10517;50.742;4.224;2023-05-27T15:06:12;37.20;68.80
20712;DHT22;10517;50.742;4.224;2023-05-27T15:08:39;37.50;65.50
20712;DHT22;10517;50.742;4.224;2023-05-27T15:11:05;37.40;65.10
20712;DHT22;10517;50.742;4.224;2023-05-27T15:13:31;37.30;64.60
20712;DHT22;10517;50.742;4.224;2023-05-27T15:15:57;36.40;62.40
20712;DHT22;10517;50.742;4.224;2023-05-27T15:18:23;35.90;66.50
20712;DHT22;10517;50.742;4.224;2023-05-27T15:20:48;35.20;67.20
20712;DHT22;10517;50.742;4.224;2023-05-27T15:23:14;36.40;66.80
20712;DHT22;10517;50.742;4.224;2023-05-27T15:25:40;35.80;63.60
20712;DHT22;10517;50.742;4.224;2023-05-27T15:28:05;36.00;64.80
20712;DHT22;10517;50.742;4.224;2023-05-27T15:30:32;36.00;62.20
20712;DHT22;10517;50.742;4.224;2023-05-27T15:32:57;36.20;65.20
20712;DHT22;10517;50.742;4.224;2023-05-27T15:35:23;36.00;63.70
20712;DHT22;10517;50.742;4.224;2023-05-27T15:37:49;35.90;60.70